Time;durP1;ratioP1;P1;durP2;ratioP2;P2;SDS_P1;SDS_P2;PMS_P1;PMS_P2;Temp;Humidity;BMP_temperature;BMP_pressure;BME280_temperature;BME280_humidity;BME280_pressure;Samples;Min_cycle;Max_cycle;Signal;HPM_P1;HPM_P2
2021/05/08 00:02:49;;;;;;;0.30;0.25;;;20.80;45.80;;;;;;6244286;28;20329;-74
2021/05/08 00:05:50;;;;;;;0.30;0.20;;;20.80;45.80;;;;;;6243609;28;20076;-75
2021/05/08 00:08:50;;;;;;;0.35;0.30;;;20.70;45.80;;;;;;6243661;28;20488;-75
2021/05/08 00:11:54;;;;;;;0.28;0.28;;;20.70;45.80;;;;;;6243866;28;20041;-75
2021/05/08 00:14:54;;;;;;;0.30;0.30;;;20.80;45.80;;;;;;6241842;28;20068;-75
2021/05/08 00:17:55;;;;;;;0.25;0.20;;;20.70;45.70;;;;;;6243763;28;20018;-74
2021/05/08 00:20:55;;;;;;;0.90;0.35;;;20.80;45.80;;;;;;6243234;28;20031;-75
2021/05/08 00:23:56;;;;;;;0.20;0.20;;;20.70;45.80;;;;;;6243403;28;20030;-75
2021/05/08 00:26:56;;;;;;;0.30;0.30;;;20.70;45.70;;;;;;6242986;28;20041;-74
2021/05/08 00:29:57;;;;;;;0.55;0.38;;;20.70;45.80;;;;;;6246875;28;20084;-75
2021/05/08 00:32:57;;;;;;;0.43;0.28;;;20.80;45.80;;;;;;6247755;28;20029;-75
2021/05/08 00:35:58;;;;;;;0.98;0.30;;;20.70;45.70;;;;;;6248126;28;20439;-75
2021/05/08 00:38:58;;;;;;;0.40;0.20;;;20.70;45.70;;;;;;6248144;28;20036;-75
2021/05/08 00:41:59;;;;;;;0.20;0.20;;;20.70;45.80;;;;;;6248407;28;20468;-75
2021/05/08 00:44:59;;;;;;;0.17;0.17;;;20.80;45.90;;;;;;6248005;28;20026;-75
2021/05/08 00:48:07;;;;;;;0.55;0.30;;;20.70;45.80;;;;;;6245981;28;20048;-75
2021/05/08 00:51:07;;;;;;;0.20;0.20;;;20.70;45.80;;;;;;6247986;28;20079;-75
2021/05/08 00:54:08;;;;;;;0.52;0.25;;;20.70;45.80;;;;;;6248262;28;20029;-75
2021/05/08 00:57:09;;;;;;;0.10;0.10;;;20.70;45.90;;;;;;6247877;28;20052;-75
2021/05/08 01:00:11;;;;;;;0.20;0.20;;;20.70;45.80;;;;;;6247633;28;20112;-75
2021/05/08 01:03:12;;;;;;;0.20;0.20;;;20.70;45.80;;;;;;6247740;28;21100;-75
2021/05/08 01:06:13;;;;;;;0.20;0.20;;;20.70;45.80;;;;;;6247467;28;20459;-75
2021/05/08 01:09:13;;;;;;;0.40;0.30;;;20.70;45.80;;;;;;6243754;28;20029;-75
2021/05/08 01:12:14;;;;;;;0.43;0.43;;;20.70;45.80;;;;;;6247988;28;20112;-75
2021/05/08 01:15:15;;;;;;;0.50;0.20;;;20.70;45.90;;;;;;6247434;28;20098;-74
2021/05/08 01:18:15;;;;;;;0.20;0.20;;;20.70;45.80;;;;;;6247391;28;20108;-75
2021/05/08 01:21:16;;;;;;;0.20;0.20;;;20.70;45.80;;;;;;6246979;28;20017;-74
2021/05/08 01:24:17;;;;;;;0.22;0.22;;;20.70;45.80;;;;;;6247055;28;20060;-74
2021/05/08 01:27:17;;;;;;;0.40;0.30;;;20.70;45.80;;;;;;6246906;28;20500;-74
2021/05/08 01:30:24;;;;;;;0.32;0.30;;;20.70;45.80;;;;;;6245133;28;20029;-74
2021/05/08 01:33:25;;;;;;;0.10;0.10;;;20.70;45.90;;;;;;6247099;28;20075;-75
2021/05/08 01:36:27;;;;;;;0.20;0.20;;;20.70;45.80;;;;;;6246867;28;20057;-75
2021/05/08 01:39:27;;;;;;;0.55;0.30;;;20.70;45.80;;;;;;6246089;28;20032;-74
2021/05/08 01:42:28;;;;;;;0.63;0.30;;;20.70;45.90;;;;;;6244477;28;20026;-75
2021/05/08 01:45:28;;;;;;;0.50;0.20;;;20.70;45.90;;;;;;6246561;28;20108;-74
2021/05/08 01:48:31;;;;;;;0.20;0.20;;;20.70;45.90;;;;;;6246469;28;20058;-74
2021/05/08 01:51:32;;;;;;;0.32;0.30;;;20.70;45.90;;;;;;6244877;28;20045;-74
2021/05/08 01:54:32;;;;;;;0.30;0.30;;;20.70;45.90;;;;;;6246557;28;20071;-75
2021/05/08 01:57:45;;;;;;;0.30;0.20;;;20.70;45.90;;;;;;6246980;28;20017;-75
2021/05/08 02:00:47;;;;;;;0.30;0.30;;;20.70;45.80;;;;;;6246261;28;20018;-75
2021/05/08 02:03:48;;;;;;;0.30;0.30;;;20.70;45.80;;;;;;6246730;28;20093;-74
2021/05/08 02:06:52;;;;;;;0.50;0.20;;;20.70;45.80;;;;;;6241929;28;20040;-74
2021/05/08 02:09:53;;;;;;;0.32;0.30;;;20.70;45.90;;;;;;6246286;28;20029;-75
2021/05/08 02:12:54;;;;;;;0.20;0.20;;;20.70;45.90;;;;;;6246340;28;20384;-75
2021/05/08 02:15:54;;;;;;;0.30;0.20;;;20.70;45.90;;;;;;6246055;28;20064;-75
2021/05/08 02:18:55;;;;;;;0.30;0.20;;;20.70;45.90;;;;;;6245893;28;20049;-74
2021/05/08 02:21:57;;;;;;;0.22;0.22;;;20.70;45.90;;;;;;6246030;28;20021;-75
2021/05/08 02:24:58;;;;;;;0.30;0.30;;;20.70;45.90;;;;;;6245611;28;20036;-74
2021/05/08 02:27:58;;;;;;;0.63;0.32;;;20.70;45.90;;;;;;6245722;28;20034;-74
2021/05/08 02:30:59;;;;;;;0.40;0.20;;;20.60;45.80;;;;;;6246073;28;20057;-75
2021/05/08 02:33:59;;;;;;;0.20;0.20;;;20.70;45.90;;;;;;6244144;28;20415;-75
2021/05/08 02:37:00;;;;;;;0.32;0.30;;;20.70;45.90;;;;;;6244983;28;20022;-75
2021/05/08 02:40:03;;;;;;;0.73;0.40;;;20.70;45.90;;;;;;6244995;28;20049;-74
2021/05/08 02:43:05;;;;;;;0.20;0.20;;;20.70;45.90;;;;;;6244680;28;20373;-75
2021/05/08 02:46:06;;;;;;;0.30;0.20;;;20.70;45.90;;;;;;6245366;28;20028;-75
2021/05/08 02:49:06;;;;;;;0.40;0.32;;;20.70;45.90;;;;;;6245595;28;20029;-75
2021/05/08 02:52:07;;;;;;;0.30;0.30;;;20.70;45.90;;;;;;6244888;28;20033;-75
2021/05/08 02:55:08;;;;;;;0.82;0.60;;;20.70;45.90;;;;;;6245225;28;20075;-75
2021/05/08 02:58:09;;;;;;;0.15;0.15;;;20.70;45.90;;;;;;6245110;28;20720;-74
2021/05/08 03:01:09;;;;;;;0.60;0.30;;;20.70;45.90;;;;;;6245246;28;20101;-75
2021/05/08 03:04:10;;;;;;;0.20;0.20;;;20.70;46.60;;;;;;6245048;28;20480;-75
2021/05/08 03:07:10;;;;;;;0.20;0.20;;;20.60;45.80;;;;;;6245053;28;20120;-75
2021/05/08 03:10:11;;;;;;;0.30;0.30;;;20.70;45.90;;;;;;6245009;28;20025;-75
2021/05/08 03:13:11;;;;;;;0.77;0.30;;;20.70;45.90;;;;;;6244823;28;20032;-75
2021/05/08 03:16:12;;;;;;;0.40;0.38;;;20.60;45.80;;;;;;6242722;28;20045;-74
2021/05/08 03:19:12;;;;;;;0.30;0.30;;;20.60;45.80;;;;;;6244819;28;20025;-75
2021/05/08 03:22:13;;;;;;;0.35;0.22;;;20.60;45.80;;;;;;6244142;28;20546;-75
2021/05/08 03:25:14;;;;;;;0.85;0.50;;;20.70;45.90;;;;;;6244823;28;20028;-75
2021/05/08 03:28:14;;;;;;;0.28;0.20;;;20.70;45.90;;;;;;6244128;28;20030;-75
2021/05/08 03:31:15;;;;;;;0.30;0.28;;;20.60;45.80;;;;;;6244610;28;20175;-75
2021/05/08 03:34:15;;;;;;;0.35;0.30;;;20.60;45.80;;;;;;6244194;28;20048;-75
2021/05/08 03:37:16;;;;;;;0.80;0.30;;;20.70;45.90;;;;;;6244516;28;20455;-75
2021/05/08 03:40:16;;;;;;;0.25;0.20;;;20.70;45.90;;;;;;6242232;28;20114;-75
2021/05/08 03:43:17;;;;;;;0.38;0.25;;;20.70;45.90;;;;;;6244547;28;20546;-75
2021/05/08 03:46:17;;;;;;;0.10;0.10;;;20.60;45.80;;;;;;6244564;28;20517;-75
2021/05/08 03:49:18;;;;;;;0.28;0.20;;;20.70;45.90;;;;;;6244828;28;20026;-75
2021/05/08 03:52:19;;;;;;;0.75;0.30;;;20.70;45.90;;;;;;6243964;28;20060;-74
2021/05/08 03:55:19;;;;;;;0.57;0.30;;;20.70;45.90;;;;;;6243882;28;20449;-74
2021/05/08 03:58:29;;;;;;;0.38;0.22;;;20.60;45.80;;;;;;6244302;28;20291;-74
2021/05/08 04:01:30;;;;;;;0.65;0.20;;;20.60;45.80;;;;;;6243727;28;20076;-75
2021/05/08 04:04:30;;;;;;;0.40;0.30;;;20.70;45.90;;;;;;6243286;28;20025;-75
2021/05/08 04:07:31;;;;;;;1.63;0.20;;;20.60;45.80;;;;;;6243756;28;20446;-75
2021/05/08 04:10:31;;;;;;;0.20;0.20;;;20.70;45.90;;;;;;6243874;28;20025;-75
2021/05/08 04:13:32;;;;;;;0.20;0.20;;;20.60;45.80;;;;;;6241897;28;20021;-75
2021/05/08 04:16:33;;;;;;;0.20;0.20;;;20.70;45.90;;;;;;6243461;28;20022;-75
2021/05/08 04:19:34;;;;;;;0.20;0.20;;;20.60;45.80;;;;;;6243276;28;20108;-75
2021/05/08 04:22:34;;;;;;;0.85;0.30;;;20.70;45.90;;;;;;6242786;28;20025;-75
2021/05/08 04:25:35;;;;;;;0.55;0.30;;;20.70;45.90;;;;;;6243378;28;20025;-74
2021/05/08 04:28:35;;;;;;;0.40;0.25;;;20.70;45.90;;;;;;6242963;28;20061;-75
2021/05/08 04:31:36;;;;;;;0.40;0.25;;;20.70;45.90;;;;;;6241826;28;20076;-75
2021/05/08 04:34:36;;;;;;;0.20;0.20;;;20.70;45.80;;;;;;6242878;28;20554;-75
2021/05/08 04:37:37;;;;;;;0.57;0.30;;;20.60;45.70;;;;;;6243223;28;20036;-75
2021/05/08 04:40:37;;;;;;;0.30;0.20;;;20.70;45.80;;;;;;6243053;28;20367;-75
2021/05/08 04:43:38;;;;;;;0.30;0.30;;;20.70;45.80;;;;;;6243530;28;20025;-75
2021/05/08 04:46:39;;;;;;;0.50;0.30;;;20.60;45.70;;;;;;6243085;28;20136;-75
2021/05/08 04:49:40;;;;;;;0.35;0.25;;;20.70;45.90;;;;;;6242907;28;20014;-75
2021/05/08 04:52:40;;;;;;;0.20;0.20;;;20.70;45.80;;;;;;6243080;28;20411;-75
2021/05/08 04:55:41;;;;;;;0.50;0.30;;;20.70;45.90;;;;;;6242039;28;20025;-75
2021/05/08 04:58:43;;;;;;;0.20;0.20;;;20.70;45.90;;;;;;6243368;28;20115;-75
2021/05/08 05:01:43;;;;;;;0.60;0.30;;;20.70;45.90;;;;;;6231111;28;20057;-75
2021/05/08 05:04:44;;;;;;;0.20;0.20;;;20.70;45.80;;;;;;6225959;28;20026;-74
2021/05/08 05:07:44;;;;;;;0.60;0.30;;;20.70;45.80;;;;;;6241610;28;20089;-75
2021/05/08 05:10:49;;;;;;;0.47;0.28;;;20.70;45.80;;;;;;6243052;28;20499;-74
2021/05/08 05:13:50;;;;;;;0.30;0.30;;;20.70;45.90;;;;;;6243161;28;20028;-75
2021/05/08 05:16:51;;;;;;;1.25;0.20;;;20.70;45.90;;;;;;6245220;28;20025;-74
2021/05/08 05:19:52;;;;;;;0.20;0.20;;;20.70;45.90;;;;;;6245597;28;20408;-74
2021/05/08 05:22:52;;;;;;;0.30;0.20;;;20.60;45.80;;;;;;6247628;28;20492;-75
2021/05/08 05:25:53;;;;;;;0.20;0.20;;;20.70;45.90;;;;;;6247500;28;20033;-75
2021/05/08 05:28:54;;;;;;;0.20;0.20;;;20.70;45.90;;;;;;6246757;28;20387;-75
2021/05/08 05:31:55;;;;;;;0.32;0.22;;;20.70;45.90;;;;;;6246958;28;20035;-75
2021/05/08 05:34:55;;;;;;;0.43;0.30;;;20.70;45.80;;;;;;6246648;28;20053;-75
2021/05/08 05:37:59;;;;;;;0.38;0.25;;;20.70;45.80;;;;;;6247184;28;20030;-75
2021/05/08 05:40:59;;;;;;;0.30;0.30;;;20.60;45.80;;;;;;6244879;28;20035;-74
2021/05/08 05:44:03;;;;;;;0.20;0.20;;;20.70;45.90;;;;;;6247499;28;20430;-75
2021/05/08 05:47:04;;;;;;;0.38;0.15;;;20.70;45.90;;;;;;6246912;28;20039;-74
2021/05/08 05:50:05;;;;;;;0.22;0.22;;;20.70;45.90;;;;;;6246054;28;20033;-75
2021/05/08 05:53:06;;;;;;;0.10;0.10;;;20.70;45.80;;;;;;6246601;28;20537;-74
2021/05/08 05:56:07;;;;;;;0.25;0.20;;;20.60;45.80;;;;;;6246252;28;20037;-75
2021/05/08 05:59:08;;;;;;;0.40;0.30;;;20.70;45.80;;;;;;6244881;28;20041;-75
2021/05/08 06:02:09;;;;;;;0.10;0.10;;;20.70;45.90;;;;;;6246549;28;20108;-75
2021/05/08 06:05:11;;;;;;;0.38;0.30;;;20.70;45.90;;;;;;6246493;28;20029;-75
2021/05/08 06:08:12;;;;;;;0.30;0.20;;;20.60;45.80;;;;;;6246205;28;20041;-75
2021/05/08 06:11:12;;;;;;;0.50;0.30;;;20.70;45.90;;;;;;6246417;28;20071;-75
2021/05/08 06:14:13;;;;;;;0.40;0.30;;;20.60;45.80;;;;;;6246593;28;20055;-75
2021/05/08 06:17:13;;;;;;;0.20;0.20;;;20.70;45.90;;;;;;6246099;28;20076;-75
2021/05/08 06:20:14;;;;;;;0.35;0.28;;;20.60;45.70;;;;;;6244158;28;20472;-74
2021/05/08 06:23:15;;;;;;;0.47;0.30;;;20.60;45.80;;;;;;6245745;28;20022;-75
2021/05/08 06:26:15;;;;;;;0.65;0.20;;;20.60;45.70;;;;;;6243371;28;20045;-75
2021/05/08 06:29:15;;;;;;;0.10;0.10;;;20.70;45.80;;;;;;6261083;28;20021;-75
2021/05/08 06:32:16;;;;;;;0.32;0.20;;;20.60;45.70;;;;;;6246493;28;20365;-75
2021/05/08 06:35:17;;;;;;;0.20;0.20;;;20.60;45.80;;;;;;6243409;28;20057;-75
2021/05/08 06:38:17;;;;;;;0.45;0.32;;;20.60;45.80;;;;;;6245976;28;20029;-75
2021/05/08 06:41:18;;;;;;;0.38;0.20;;;20.60;45.80;;;;;;6245688;28;20462;-74
2021/05/08 06:44:19;;;;;;;0.50;0.35;;;20.60;45.70;;;;;;6245693;28;20464;-75
2021/05/08 06:47:19;;;;;;;1.23;0.40;;;20.60;45.70;;;;;;6245363;28;20037;-75
2021/05/08 06:50:20;;;;;;;1.15;0.30;;;20.60;45.70;;;;;;6245066;28;20120;-75
2021/05/08 06:53:20;;;;;;;0.57;0.40;;;20.60;45.70;;;;;;6245439;28;20079;-75
2021/05/08 06:56:23;;;;;;;0.35;0.28;;;20.60;45.70;;;;;;6243942;28;20029;-74
2021/05/08 06:59:23;;;;;;;1.65;0.40;;;20.60;45.70;;;;;;6245463;28;20026;-75
2021/05/08 07:02:24;;;;;;;0.40;0.30;;;20.60;45.80;;;;;;6245870;28;20060;-75
2021/05/08 07:05:24;;;;;;;0.50;0.40;;;20.60;45.80;;;;;;6245228;28;20026;-75
2021/05/08 07:08:25;;;;;;;0.30;0.30;;;20.60;45.80;;;;;;6245105;28;20038;-75
2021/05/08 07:11:25;;;;;;;0.47;0.30;;;20.60;45.80;;;;;;6244931;28;20064;-75
2021/05/08 07:14:26;;;;;;;0.73;0.30;;;20.60;45.60;;;;;;6243008;28;20037;-75
2021/05/08 07:17:26;;;;;;;1.90;0.40;;;20.60;45.80;;;;;;6245054;28;20033;-75
2021/05/08 07:20:27;;;;;;;0.47;0.35;;;20.60;45.60;;;;;;6244889;28;20120;-74
2021/05/08 07:23:28;;;;;;;0.70;0.20;;;20.60;45.70;;;;;;6243161;28;20025;-75
2021/05/08 07:26:28;;;;;;;1.17;0.40;;;20.60;45.60;;;;;;6245184;28;20037;-75
2021/05/08 07:29:29;;;;;;;0.47;0.30;;;20.60;45.70;;;;;;6245032;28;20367;-75
2021/05/08 07:32:29;;;;;;;0.55;0.30;;;20.60;45.70;;;;;;6244940;28;20049;-75
2021/05/08 07:35:30;;;;;;;1.23;0.40;;;20.60;45.70;;;;;;6244423;28;20049;-75
2021/05/08 07:38:30;;;;;;;0.60;0.20;;;20.60;45.60;;;;;;6245073;28;20107;-75
2021/05/08 07:41:31;;;;;;;0.40;0.40;;;20.60;45.60;;;;;;6244698;28;20602;-74
2021/05/08 07:44:32;;;;;;;0.80;0.30;;;20.60;45.70;;;;;;6244468;28;20388;-74
2021/05/08 07:47:32;;;;;;;0.95;0.40;;;20.60;45.70;;;;;;6244692;28;20069;-75
2021/05/08 07:50:33;;;;;;;0.30;0.30;;;20.60;45.60;;;;;;6244517;28;20329;-75
2021/05/08 07:53:33;;;;;;;0.30;0.28;;;20.60;45.70;;;;;;6243767;28;20093;-75
2021/05/08 07:56:35;;;;;;;0.45;0.40;;;20.60;45.70;;;;;;6244135;28;20026;-75
2021/05/08 07:59:36;;;;;;;0.80;0.35;;;20.60;45.70;;;;;;6244019;28;20503;-74
2021/05/08 08:02:37;;;;;;;1.05;0.40;;;20.60;45.70;;;;;;6243991;28;20418;-75
2021/05/08 08:05:37;;;;;;;0.75;0.40;;;20.60;45.60;;;;;;6243852;28;20535;-75
2021/05/08 08:08:39;;;;;;;0.98;0.40;;;20.60;45.60;;;;;;6243991;28;20045;-75
2021/05/08 08:11:39;;;;;;;0.70;0.30;;;20.60;45.60;;;;;;6243660;28;20076;-75
2021/05/08 08:14:40;;;;;;;0.93;0.40;;;20.60;45.60;;;;;;6244016;28;20362;-75
2021/05/08 08:17:40;;;;;;;0.93;0.40;;;20.60;45.60;;;;;;6243787;28;20414;-74
2021/05/08 08:20:41;;;;;;;0.38;0.30;;;20.60;45.60;;;;;;6243615;28;20030;-75
2021/05/08 08:23:42;;;;;;;0.80;0.40;;;20.60;45.60;;;;;;6243707;28;20038;-75
2021/05/08 08:26:42;;;;;;;1.25;0.73;;;20.60;45.60;;;;;;6243645;28;20091;-75
2021/05/08 08:29:43;;;;;;;0.73;0.40;;;20.60;45.50;;;;;;6243888;28;20029;-75
2021/05/08 08:32:43;;;;;;;0.60;0.25;;;20.60;45.60;;;;;;6243599;28;20021;-75
2021/05/08 08:35:44;;;;;;;1.00;0.43;;;20.60;45.50;;;;;;6243551;28;20129;-75
2021/05/08 08:38:44;;;;;;;1.60;0.60;;;20.60;45.50;;;;;;6243470;28;20371;-75
2021/05/08 08:41:45;;;;;;;0.73;0.43;;;20.60;45.60;;;;;;6243253;28;20380;-75
2021/05/08 08:44:46;;;;;;;0.60;0.30;;;20.60;45.50;;;;;;6242450;28;20028;-75
2021/05/08 08:47:46;;;;;;;0.93;0.30;;;20.60;45.40;;;;;;6243402;28;20029;-75
2021/05/08 08:50:48;;;;;;;1.08;0.38;;;20.60;45.40;;;;;;6245831;28;20025;-75
2021/05/08 08:53:49;;;;;;;0.77;0.38;;;20.60;45.50;;;;;;6248397;28;20528;-75
2021/05/08 08:56:50;;;;;;;0.60;0.50;;;20.70;45.60;;;;;;6248159;28;20029;-75
2021/05/08 08:59:52;;;;;;;1.48;0.50;;;20.60;45.50;;;;;;6248152;28;20025;-75
2021/05/08 09:02:53;;;;;;;0.57;0.40;;;20.60;45.40;;;;;;6243684;28;20116;-75
2021/05/08 09:05:54;;;;;;;1.13;0.43;;;20.60;45.30;;;;;;6245590;28;20852;-75
2021/05/08 09:08:57;;;;;;;0.80;0.40;;;20.60;45.20;;;;;;6248037;28;20064;-74
2021/05/08 09:11:57;;;;;;;0.85;0.60;;;20.60;45.40;;;;;;6247487;28;20108;-74
2021/05/08 09:14:58;;;;;;;0.45;0.40;;;20.70;45.20;;;;;;6246090;28;20488;-74
2021/05/08 09:18:00;;;;;;;0.40;0.20;;;20.60;45.10;;;;;;6247604;28;20483;-75
2021/05/08 09:21:05;;;;;;;1.02;0.60;;;20.70;45.30;;;;;;6247728;28;20407;-75
2021/05/08 09:24:06;;;;;;;0.40;0.40;;;20.60;45.20;;;;;;6247337;28;20052;-75
2021/05/08 09:27:07;;;;;;;0.50;0.40;;;20.70;45.40;;;;;;6247269;28;20395;-74
2021/05/08 09:30:21;;;;;;;0.60;0.40;;;20.70;45.40;;;;;;6247501;28;20033;-75
2021/05/08 09:33:24;;;;;;;0.60;0.38;;;20.60;45.20;;;;;;6246834;28;20021;-75
2021/05/08 09:36:24;;;;;;;0.77;0.30;;;20.60;45.10;;;;;;6246577;28;20057;-75
2021/05/08 09:39:32;;;;;;;0.95;0.40;;;20.60;45.20;;;;;;6247296;28;20025;-75
2021/05/08 09:42:56;;;;;;;1.25;0.40;;;20.60;45.20;;;;;;6247352;28;20030;-75
2021/05/08 09:45:58;;;;;;;1.25;0.38;;;20.70;45.40;;;;;;6247856;28;20029;-75
2021/05/08 09:49:15;;;;;;;1.20;0.55;;;20.70;45.40;;;;;;6246415;28;20218;-75
2021/05/08 09:52:16;;;;;;;0.50;0.40;;;20.70;45.40;;;;;;6246841;28;20017;-75
2021/05/08 09:55:18;;;;;;;1.52;0.40;;;20.60;45.40;;;;;;6245344;28;20041;-75
2021/05/08 09:58:26;;;;;;;0.80;0.50;;;20.70;45.30;;;;;;6244497;28;20396;-75
2021/05/08 10:01:27;;;;;;;0.77;0.40;;;20.70;45.30;;;;;;6244796;28;20030;-75
2021/05/08 10:04:46;;;;;;;0.32;0.30;;;20.60;45.30;;;;;;6242023;28;20432;-75
2021/05/08 10:07:46;;;;;;;1.65;0.50;;;20.70;45.30;;;;;;6246423;28;20064;-74
2021/05/08 10:10:47;;;;;;;0.70;0.50;;;20.70;45.30;;;;;;6244588;28;20045;-75
2021/05/08 10:13:48;;;;;;;1.02;0.55;;;20.70;45.30;;;;;;6246341;28;20044;-75
2021/05/08 10:16:48;;;;;;;0.35;0.30;;;20.70;45.50;;;;;;6244794;28;20084;-74
2021/05/08 10:19:51;;;;;;;0.32;0.30;;;20.60;45.20;;;;;;6245730;28;20053;-74
2021/05/08 10:22:58;;;;;;;0.60;0.30;;;20.70;45.30;;;;;;6244027;28;20068;-75
2021/05/08 10:26:02;;;;;;;0.40;0.38;;;20.60;45.20;;;;;;6241637;28;20472;-74
2021/05/08 10:29:03;;;;;;;0.60;0.40;;;20.70;45.20;;;;;;6244278;28;20033;-74
2021/05/08 10:32:06;;;;;;;0.73;0.30;;;20.70;45.30;;;;;;6241804;28;20049;-75
2021/05/08 10:35:07;;;;;;;1.30;0.40;;;20.70;45.20;;;;;;6239978;28;20136;-75
2021/05/08 10:38:26;;;;;;;0.93;0.60;;;20.70;45.30;;;;;;6246018;28;20109;-74
2021/05/08 10:41:53;;;;;;;0.85;0.47;;;20.70;45.20;;;;;;6245273;28;20128;-75
2021/05/08 10:44:53;;;;;;;1.00;0.50;;;20.70;45.20;;;;;;6245878;28;20029;-75
2021/05/08 10:47:58;;;;;;;0.40;0.30;;;20.70;45.20;;;;;;6245832;28;20079;-74
2021/05/08 10:50:59;;;;;;;0.60;0.38;;;20.70;45.20;;;;;;6245249;28;20044;-75
2021/05/08 10:54:00;;;;;;;0.30;0.30;;;20.70;45.20;;;;;;6243498;28;20405;-74
2021/05/08 10:57:24;;;;;;;0.22;0.22;;;20.70;45.20;;;;;;6245404;28;20029;-75
2021/05/08 11:00:25;;;;;;;0.98;0.40;;;20.70;45.40;;;;;;6245396;28;20036;-75
2021/05/08 11:03:30;;;;;;;1.45;0.40;;;20.70;45.30;;;;;;6245211;28;20060;-75
2021/05/08 11:06:31;;;;;;;0.90;0.50;;;20.70;45.20;;;;;;6243682;28;20029;-75
2021/05/08 11:09:32;;;;;;;0.52;0.40;;;20.70;45.20;;;;;;6241456;28;20033;-75
2021/05/08 11:13:04;;;;;;;0.80;0.40;;;20.70;45.10;;;;;;6243445;28;20026;-75
2021/05/08 11:16:05;;;;;;;0.52;0.40;;;20.70;45.10;;;;;;6244975;28;20021;-74
2021/05/08 11:19:22;;;;;;;0.90;0.40;;;20.70;45.20;;;;;;6244592;28;20026;-75
2021/05/08 11:22:31;;;;;;;0.47;0.40;;;20.70;45.20;;;;;;6244495;28;20025;-75
2021/05/08 11:25:32;;;;;;;0.57;0.30;;;20.70;45.10;;;;;;6244431;28;20029;-74
2021/05/08 11:28:33;;;;;;;0.60;0.38;;;20.70;45.10;;;;;;6244277;28;20060;-75
2021/05/08 11:31:41;;;;;;;0.55;0.38;;;20.70;45.20;;;;;;6245412;28;20038;-75
2021/05/08 11:34:44;;;;;;;0.40;0.40;;;20.70;45.10;;;;;;6245163;28;20054;-74
2021/05/08 11:37:45;;;;;;;0.38;0.30;;;20.70;45.00;;;;;;6244814;28;20105;-74
2021/05/08 11:40:45;;;;;;;0.60;0.40;;;20.70;45.00;;;;;;6245280;28;20421;-75
2021/05/08 11:43:55;;;;;;;0.80;0.40;;;20.70;45.00;;;;;;6243184;28;20025;-74
2021/05/08 11:47:03;;;;;;;0.60;0.47;;;20.70;45.00;;;;;;6244627;28;20499;-74
2021/05/08 11:50:08;;;;;;;0.30;0.30;;;20.70;45.00;;;;;;6244463;28;20029;-74
2021/05/08 11:53:16;;;;;;;0.77;0.43;;;20.70;45.00;;;;;;6244760;28;20075;-74
2021/05/08 11:56:29;;;;;;;0.40;0.32;;;20.70;45.00;;;;;;6244600;28;20101;-74
2021/05/08 11:59:32;;;;;;;0.90;0.40;;;20.70;44.90;;;;;;6244722;28;20032;-74
2021/05/08 12:02:33;;;;;;;0.73;0.40;;;20.70;45.10;;;;;;6244733;28;20033;-74
2021/05/08 12:05:37;;;;;;;0.65;0.38;;;20.70;45.00;;;;;;6244304;28;20026;-74
2021/05/08 12:08:38;;;;;;;0.63;0.43;;;20.70;45.00;;;;;;6244209;28;20030;-75
2021/05/08 12:11:39;;;;;;;0.40;0.30;;;20.70;44.90;;;;;;6244312;28;20057;-74
2021/05/08 12:14:41;;;;;;;0.40;0.30;;;20.70;44.90;;;;;;6244182;28;20049;-74
2021/05/08 12:17:42;;;;;;;0.60;0.40;;;20.70;44.90;;;;;;6244064;28;20026;-74
2021/05/08 12:20:50;;;;;;;1.48;0.60;;;20.70;44.90;;;;;;6244140;28;20067;-75
2021/05/08 12:23:50;;;;;;;1.48;0.57;;;20.70;44.80;;;;;;6243605;28;20017;-74
2021/05/08 12:26:51;;;;;;;1.10;0.40;;;20.70;45.00;;;;;;6243481;28;20038;-74
2021/05/08 12:29:58;;;;;;;1.13;0.50;;;20.70;45.00;;;;;;6240300;28;20117;-74
2021/05/08 12:32:58;;;;;;;0.30;0.30;;;20.70;44.80;;;;;;6243528;28;20476;-74
2021/05/08 12:36:13;;;;;;;1.45;0.50;;;20.70;44.80;;;;;;6243887;28;20061;-75
2021/05/08 12:39:19;;;;;;;0.30;0.28;;;20.70;44.70;;;;;;6243495;28;20022;-75
2021/05/08 12:42:19;;;;;;;0.43;0.32;;;20.70;44.80;;;;;;6241864;28;20104;-75
2021/05/08 12:45:20;;;;;;;0.30;0.22;;;20.70;44.70;;;;;;6244210;28;20035;-75
2021/05/08 12:48:39;;;;;;;0.75;0.40;;;20.70;44.80;;;;;;6243743;28;20030;-74
2021/05/08 12:51:40;;;;;;;0.65;0.40;;;20.70;44.80;;;;;;6243110;28;20064;-75
2021/05/08 12:54:49;;;;;;;0.35;0.30;;;20.70;44.70;;;;;;6243796;28;20032;-75
2021/05/08 12:57:51;;;;;;;0.47;0.40;;;20.70;44.80;;;;;;6244050;28;20396;-74
2021/05/08 13:00:53;;;;;;;0.60;0.40;;;20.70;44.80;;;;;;6241904;28;20444;-75
2021/05/08 13:03:54;;;;;;;0.63;0.30;;;20.70;44.60;;;;;;6242844;28;20030;-74
2021/05/08 13:06:54;;;;;;;0.73;0.30;;;20.70;44.60;;;;;;6243084;28;20449;-75
2021/05/08 13:10:16;;;;;;;0.85;0.40;;;20.70;44.70;;;;;;6242739;28;20029;-75
2021/05/08 13:13:19;;;;;;;1.23;0.30;;;20.80;44.50;;;;;;6242890;28;20252;-75
2021/05/08 13:16:20;;;;;;;2.50;0.40;;;20.80;44.60;;;;;;6241210;28;20021;-75
2021/05/08 13:19:21;;;;;;;0.98;0.40;;;20.70;44.80;;;;;;6242822;28;20033;-75
2021/05/08 13:22:22;;;;;;;0.40;0.40;;;20.80;44.70;;;;;;6242789;28;20035;-75
2021/05/08 13:25:22;;;;;;;0.43;0.40;;;20.70;44.70;;;;;;6243116;28;20033;-75
2021/05/08 13:28:23;;;;;;;1.00;0.50;;;20.70;44.70;;;;;;6241662;28;20427;-75
2021/05/08 13:31:23;;;;;;;0.40;0.35;;;20.70;44.80;;;;;;6243497;28;20029;-74
2021/05/08 13:34:24;;;;;;;1.35;0.47;;;20.70;44.70;;;;;;6242608;28;20385;-74
2021/05/08 13:37:24;;;;;;;0.30;0.30;;;20.70;44.90;;;;;;6246718;28;20072;-74
2021/05/08 13:40:26;;;;;;;0.47;0.30;;;20.70;44.80;;;;;;6246986;28;20029;-75
2021/05/08 13:43:26;;;;;;;0.70;0.30;;;20.70;44.70;;;;;;6247251;28;20440;-75
2021/05/08 13:46:27;;;;;;;0.35;0.30;;;20.70;44.80;;;;;;6243476;28;20447;-75
2021/05/08 13:49:27;;;;;;;0.32;0.30;;;20.80;44.70;;;;;;6237852;28;20030;-74
2021/05/08 13:52:28;;;;;;;0.13;0.13;;;20.80;44.70;;;;;;6239635;28;20136;-74
2021/05/08 13:55:29;;;;;;;0.50;0.30;;;20.70;45.20;;;;;;6249010;28;20029;-74
2021/05/08 13:58:30;;;;;;;0.63;0.30;;;20.70;45.20;;;;;;6243066;28;20040;-74
2021/05/08 14:01:30;;;;;;;1.52;0.43;;;20.70;45.30;;;;;;6243821;28;20026;-74
2021/05/08 14:04:31;;;;;;;1.90;0.30;;;20.70;45.30;;;;;;6243717;28;20117;-74
2021/05/08 14:07:32;;;;;;;1.70;0.43;;;20.70;45.40;;;;;;6244441;28;20129;-74
2021/05/08 14:10:32;;;;;;;5.88;0.40;;;20.70;45.50;;;;;;6244326;28;20104;-75
2021/05/08 14:13:33;;;;;;;14.25;0.50;;;20.70;45.50;;;;;;6244539;28;20105;-75
2021/05/08 14:16:33;;;;;;;1.40;0.40;;;20.70;45.50;;;;;;6244017;28;20546;-74
2021/05/08 14:19:34;;;;;;;4.85;0.55;;;20.70;45.50;;;;;;6239726;28;20026;-73
2021/05/08 14:22:35;;;;;;;1.10;0.50;;;20.70;45.60;;;;;;6246824;28;20554;-74
2021/05/08 14:25:36;;;;;;;9.43;0.80;;;20.70;45.60;;;;;;6247150;28;20350;-75
2021/05/08 14:28:36;;;;;;;2.92;0.68;;;20.70;45.60;;;;;;6242885;28;20116;-76
2021/05/08 14:31:37;;;;;;;5.95;0.90;;;20.70;46.60;;;;;;6242729;28;20478;-75
2021/05/08 14:34:38;;;;;;;4.57;0.40;;;20.80;45.10;;;;;;6243297;28;20061;-75
2021/05/08 14:37:39;;;;;;;3.28;0.50;;;20.80;45.40;;;;;;6241841;28;20075;-76
2021/05/08 14:40:40;;;;;;;1.35;0.30;;;20.80;45.40;;;;;;6241978;28;20591;-74
2021/05/08 14:43:40;;;;;;;5.38;0.60;;;20.80;45.50;;;;;;6238244;28;20064;-73
2021/05/08 14:46:41;;;;;;;4.28;0.50;;;20.90;45.30;;;;;;6241999;28;20392;-74
2021/05/08 14:49:43;;;;;;;5.22;0.50;;;20.90;45.50;;;;;;6241686;28;20542;-74
2021/05/08 14:52:43;;;;;;;4.85;0.45;;;20.80;45.40;;;;;;6240398;28;20029;-73
2021/05/08 14:55:44;;;;;;;6.47;0.55;;;20.90;45.50;;;;;;6242200;28;20542;-74
2021/05/08 14:58:44;;;;;;;5.35;0.50;;;20.90;45.60;;;;;;6242734;28;20071;-74
2021/05/08 15:01:45;;;;;;;2.20;0.40;;;20.80;45.60;;;;;;6242773;28;20029;-74
2021/05/08 15:04:46;;;;;;;4.85;0.68;;;20.80;45.60;;;;;;6250374;28;20025;-73
2021/05/08 15:07:46;;;;;;;0.60;0.30;;;20.80;45.70;;;;;;6240425;28;20079;-74
2021/05/08 15:10:48;;;;;;;0.60;0.38;;;20.80;45.70;;;;;;6241904;28;20091;-73
2021/05/08 15:13:48;;;;;;;1.13;0.63;;;20.80;45.80;;;;;;6242083;28;20107;-73
2021/05/08 15:16:49;;;;;;;3.03;0.50;;;20.80;45.80;;;;;;6241423;28;20033;-73
2021/05/08 15:19:49;;;;;;;3.45;0.45;;;20.80;45.80;;;;;;6241205;28;20053;-73
2021/05/08 15:22:50;;;;;;;1.10;0.22;;;20.80;45.90;;;;;;6242491;28;20026;-74
2021/05/08 15:25:50;;;;;;;0.75;0.30;;;20.80;45.90;;;;;;6242197;28;20040;-74
2021/05/08 15:28:51;;;;;;;0.43;0.40;;;20.80;45.90;;;;;;6240317;28;20262;-74
2021/05/08 15:31:52;;;;;;;2.25;0.50;;;20.80;45.80;;;;;;6238108;28;20037;-74
2021/05/08 15:34:52;;;;;;;5.70;0.60;;;20.80;45.90;;;;;;6242234;28;20065;-74
2021/05/08 15:37:53;;;;;;;4.40;0.60;;;20.80;45.90;;;;;;6242296;28;20380;-74
2021/05/08 15:40:58;;;;;;;5.03;0.93;;;20.80;45.90;;;;;;6240978;28;20029;-74
2021/05/08 15:43:58;;;;;;;6.72;1.23;;;20.80;45.90;;;;;;6240214;28;20029;-74
2021/05/08 15:47:04;;;;;;;8.10;1.35;;;20.80;46.00;;;;;;6240778;28;20068;-74
2021/05/08 15:50:05;;;;;;;6.13;1.23;;;20.80;45.90;;;;;;6241387;28;20302;-74